Hakkou 21 — JM6662 — position and weather

sailwx.info

Track history (hours):
 
Tides and Currents Weather Stations Pressure Air Temp Water Temp Dewpoint Dewpoint Depression Visibility Wind Speed Wind Dir Waves Ship Positions

Hakkou 21

Last reported at 2017-Nov-19 21:33 UTC. Time now 2017-Nov-21 02:42 UTC.
Position N 34°31' E 135°24'.

Length 121 m; draft 4.9 m.

Type: Cargo ship. MMSI: 431602082.

Date/timePositionNaut miles runAvg speedWind from/ knotsBaromVisibWave heightAir tempDewpointWater temp
2017-Nov-19 21:33N 34°31' E 135°24'0 0.0
2017-Nov-19 21:30N 34°31' E 135°24'2 3.9
2017-Nov-19 20:59N 34°32' E 135°21'816.9
2017-Nov-19 20:30N 34°28' E 135°13'816.7
2017-Nov-19 20:00N 34°22' E 135°05'816.1
2017-Nov-19 19:30N 34°16' E 134°59'715.3
2017-Nov-19 19:00N 34°08' E 134°58'916.0
2017-Nov-19 18:26N 33°59' E 134°55'  
2017-Nov-17 06:18N 34°10' E 134°57'619.1
2017-Nov-17 06:00N 34°15' E 134°58'917.6
2017-Nov-17 05:29N 34°24' E 135°03'918.0
2017-Nov-17 05:00N 34°28' E 135°12'816.4
2017-Nov-17 04:30N 34°31' E 135°21'2 0.3
2017-Nov-16 21:55N 34°31' E 135°24'1 2.3
2017-Nov-16 21:30N 34°32' E 135°23'814.3
2017-Nov-16 20:59N 34°29' E 135°15'816.9
2017-Nov-16 20:30N 34°23' E 135°07'816.6
2017-Nov-16 20:00N 34°18' E 135°00'715.0
2017-Nov-16 19:30N 34°10' E 134°60'815.7
2017-Nov-16 19:00N 34°02' E 134°59'6 0.2
2017-Nov-15 05:01N 34°08' E 134°56'617.5
2017-Nov-15 04:39N 34°14' E 134°58'417.6
2017-Nov-15 04:26N 34°18' E 134°59'716.2
2017-Nov-15 04:00N 34°24' E 135°03'816.0
2017-Nov-15 03:30N 34°28' E 135°12'815.1
2017-Nov-15 03:00N 34°31' E 135°20'3 5.4
2017-Nov-15 02:29N 34°31' E 135°23'0 0.6
2017-Nov-15 01:51N 34°31' E 135°24'0 0.0
2017-Nov-15 01:07N 34°31' E 135°24'0 0.0
2017-Nov-15 00:43N 34°31' E 135°24'0 0.0
2017-Nov-15 00:25N 34°31' E 135°24'0 0.0
2017-Nov-14 23:01N 34°31' E 135°24'0 0.0
2017-Nov-14 22:43N 34°31' E 135°24'0 0.0
2017-Nov-14 22:30N 34°31' E 135°24'0 0.7
2017-Nov-14 22:00N 34°31' E 135°23'612.7
2017-Nov-14 21:30N 34°29' E 135°16'917.3
2017-Nov-14 20:58N 34°24' E 135°07'817.6
2017-Nov-14 20:30N 34°18' E 135°00'917.3
2017-Nov-14 20:00N 34°09' E 135°00'917.5
2017-Nov-14 19:29N 34°01' E 134°56'38 0.9
2017-Nov-13 02:00N 34°33' E 135°21'3 4.5
2017-Nov-13 01:25N 34°31' E 135°24'0 0.0
2017-Nov-12 22:13N 34°31' E 135°24'0 0.0
2017-Nov-12 21:43N 34°31' E 135°24'0 0.2
2017-Nov-12 21:26N 34°31' E 135°24'2 3.8
2017-Nov-12 21:00N 34°32' E 135°22'815.9
2017-Nov-12 20:30N 34°28' E 135°14'816.3
2017-Nov-12 20:00N 34°23' E 135°06'815.9
2017-Nov-12 19:28N 34°16' E 134°59'715.6
2017-Nov-12 19:00N 34°09' E 134°59'815.2
2017-Nov-12 18:28N 34°01' E 134°57'  
2017-Nov-10 04:37N 34°16' E 134°58'213.7
2017-Nov-10 04:30N 34°18' E 134°59'714.9
2017-Nov-10 04:00N 34°24' E 135°04'816.6
2017-Nov-10 03:30N 34°28' E 135°12'816.5
2017-Nov-10 03:00N 34°32' E 135°21'2 0.7
2017-Nov-10 00:11N 34°31' E 135°24'0 0.0
2017-Nov-09 21:59N 34°31' E 135°24'  
Track history (hours):
 
Tides and Currents Weather Stations Pressure Air Temp Water Temp Dewpoint Dewpoint Depression Visibility Wind Speed Wind Dir Waves Ship Positions

Hakkou 21

Last reported at 2017-Nov-19 21:33 UTC. Time now 2017-Nov-21 02:42 UTC.
Position N 34°31' E 135°24'.

Length 121 m; draft 4.9 m.

Type: Cargo ship. MMSI: 431602082.

Date/timePositionNaut miles runAvg speedWind from/ knotsBaromVisibWave heightAir tempDewpointWater temp
2017-Nov-19 21:33N 34°31' E 135°24'0 0.0
2017-Nov-19 21:30N 34°31' E 135°24'2 3.9
2017-Nov-19 20:59N 34°32' E 135°21'816.9
2017-Nov-19 20:30N 34°28' E 135°13'816.7
2017-Nov-19 20:00N 34°22' E 135°05'816.1
2017-Nov-19 19:30N 34°16' E 134°59'715.3
2017-Nov-19 19:00N 34°08' E 134°58'916.0
2017-Nov-19 18:26N 33°59' E 134°55'  
2017-Nov-17 06:18N 34°10' E 134°57'619.1
2017-Nov-17 06:00N 34°15' E 134°58'917.6
2017-Nov-17 05:29N 34°24' E 135°03'918.0
2017-Nov-17 05:00N 34°28' E 135°12'816.4
2017-Nov-17 04:30N 34°31' E 135°21'2 0.3
2017-Nov-16 21:55N 34°31' E 135°24'1 2.3
2017-Nov-16 21:30N 34°32' E 135°23'814.3
2017-Nov-16 20:59N 34°29' E 135°15'816.9
2017-Nov-16 20:30N 34°23' E 135°07'816.6
2017-Nov-16 20:00N 34°18' E 135°00'715.0
2017-Nov-16 19:30N 34°10' E 134°60'815.7
2017-Nov-16 19:00N 34°02' E 134°59'6 0.2
2017-Nov-15 05:01N 34°08' E 134°56'617.5
2017-Nov-15 04:39N 34°14' E 134°58'417.6
2017-Nov-15 04:26N 34°18' E 134°59'716.2
2017-Nov-15 04:00N 34°24' E 135°03'816.0
2017-Nov-15 03:30N 34°28' E 135°12'815.1
2017-Nov-15 03:00N 34°31' E 135°20'3 5.4
2017-Nov-15 02:29N 34°31' E 135°23'0 0.6
2017-Nov-15 01:51N 34°31' E 135°24'0 0.0
2017-Nov-15 01:07N 34°31' E 135°24'0 0.0
2017-Nov-15 00:43N 34°31' E 135°24'0 0.0
2017-Nov-15 00:25N 34°31' E 135°24'0 0.0
2017-Nov-14 23:01N 34°31' E 135°24'0 0.0
2017-Nov-14 22:43N 34°31' E 135°24'0 0.0
2017-Nov-14 22:30N 34°31' E 135°24'0 0.7
2017-Nov-14 22:00N 34°31' E 135°23'612.7
2017-Nov-14 21:30N 34°29' E 135°16'917.3
2017-Nov-14 20:58N 34°24' E 135°07'817.6
2017-Nov-14 20:30N 34°18' E 135°00'917.3
2017-Nov-14 20:00N 34°09' E 135°00'917.5
2017-Nov-14 19:29N 34°01' E 134°56'38 0.9
2017-Nov-13 02:00N 34°33' E 135°21'3 4.5
2017-Nov-13 01:25N 34°31' E 135°24'0 0.0
2017-Nov-12 22:13N 34°31' E 135°24'0 0.0
2017-Nov-12 21:43N 34°31' E 135°24'0 0.2
2017-Nov-12 21:26N 34°31' E 135°24'2 3.8
2017-Nov-12 21:00N 34°32' E 135°22'815.9
2017-Nov-12 20:30N 34°28' E 135°14'816.3
2017-Nov-12 20:00N 34°23' E 135°06'815.9
2017-Nov-12 19:28N 34°16' E 134°59'715.6
2017-Nov-12 19:00N 34°09' E 134°59'815.2
2017-Nov-12 18:28N 34°01' E 134°57'  
2017-Nov-10 04:37N 34°16' E 134°58'213.7
2017-Nov-10 04:30N 34°18' E 134°59'714.9
2017-Nov-10 04:00N 34°24' E 135°04'816.6
2017-Nov-10 03:30N 34°28' E 135°12'816.5
2017-Nov-10 03:00N 34°32' E 135°21'2 0.7
2017-Nov-10 00:11N 34°31' E 135°24'0 0.0
2017-Nov-09 21:59N 34°31' E 135°24'  

Dump ship's entire track history